Accueil
METAR-TAF:

METAR-TAF

Aéroports :

Pierre Regional Airport

Pierre, Dakota du Sud, États-Unis

latitude: 44-22-58N, longitude: 100-17-09W, altitude: 531 m

Observation

Le bulletin a été fait il y a 1 heure et 11 minutes, à 00:53 UTC
Vent 5 kt de nord-est
Température -17°C
Humidité 71%
Pression 1037 hPa
Visibilité: 16.1 km
Ciel clair

METAR: KPIR 120053Z AUTO 04005KT 10SM CLR M17/M21 A3061 RMK AO2 SLP409 T11671206

Heure: 20:04 (02:04 UTC)

Prévision

Le bulletin a été fait il y a 2 heures et 27 minutes, à 23:37 UTC
Prévision valable du 12 à 00 UTC au 12 à 24 UTC
Vent 6 kt de sud-est
Visibilité: 10 km
Ciel clair
A partir de 12 à 1600 UTC
Vent 13 kt de sud
Visibilité: 10 km
Nuages fragmentés à une hauteur de 20000 ft

TAF: KPIR 112337Z 1200/1224 13006KT P6SM SKC FM121600 18013KT P6SM BKN200

Observations et prévisions météorologiques de plus de 4000 aéroports (messages METAR et TAF).

Les stations disponibles sont représentées par des disques jaunes et rouges sur la carte.

Passer la souris dessus pour voir le nom de la station.

Cliquer dessus pour voir les observations et prévisions météorologiques.

Pour changer de carte: cliquez sur les boutons verts avec une croix noire pour zoomer, sur le bouton vert avec un tiret pour effectuer un zoom arrière, ou sur les flèches vertes pour les cartes adjacentes.


METAR-TAF: